Date,TemperatureHighF,TemperatureAvgF,TemperatureLowF,DewpointHighF,DewpointAvgF,DewpointLowF,HumidityHigh,HumidityAvg,HumidityLow,PressureMaxIn,PressureMinIn,WindSpeedMaxMPH,WindSpeedAvgMPH,GustSpeedMaxMPH,PrecipitationSumIn
2014-1-3,0.0,0.0,0.0,-7.4,-7.4,-7.4,0,0,100,30.48,30.48,0,0,0,0.00
2014-1-4,0.9,0.0,0.0,-2.3,-7.3,-7.4,86,1,86,30.43,29.89,2,0,2,0.00
2014-1-5,72.3,5.2,-5.6,71.1,0.2,-15.8,96,44,45,30.30,27.14,28,12,36,0.45
2014-1-6,-3.8,-9.0,-15.0,-14.2,-18.3,-22.7,72,62,56,30.39,30.29,22,15,27,0.00
2014-1-7,18.7,3.0,-9.6,7.1,-4.2,-15.7,86,72,53,30.34,30.11,12,6,12,0.00
2014-1-8,14.9,11.3,3.2,11.3,7.1,0.0,91,83,77,30.39,30.15,12,7,12,0.00
2014-1-9,29.5,20.3,9.0,29.2,18.4,4.8,99,92,80,30.38,30.03,13,7,13,0.00
2014-1-10,43.3,36.1,29.8,42.0,33.5,27.2,98,90,85,30.02,29.45,17,8,17,0.53
2014-1-11,43.2,35.5,26.4,36.5,32.6,25.5,99,90,71,29.76,29.44,20,11,24,0.01
2014-1-12,55.9,40.5,25.5,39.2,32.5,24.6,98,75,48,29.70,29.45,21,8,25,0.00
2014-1-13,47.7,37.0,28.2,38.7,32.8,27.5,98,85,66,29.73,29.45,16,7,21,0.00
2014-1-14,39.6,31.9,22.6,36.2,25.5,15.2,97,78,58,30.02,29.55,29,15,36,0.05
2014-1-15,26.1,20.1,13.3,17.3,13.3,9.1,84,74,63,30.10,29.78,17,11,21,0.00
2014-1-16,43.5,31.2,12.9,33.0,24.9,5.4,98,78,55,29.86,29.55,34,16,40,0.01
2014-1-17,20.1,12.7,7.2,11.3,6.4,0.8,85,75,65,30.04,29.86,21,12,27,0.00
2014-1-18,35.8,24.3,9.9,34.5,20.2,7.6,97,85,58,30.00,29.53,25,11,30,0.05
2014-1-19,49.6,33.6,17.1,32.1,24.6,14.7,91,71,49,29.92,29.60,23,15,28,0.00
2014-1-20,43.9,36.9,20.3,34.8,31.6,19.6,98,82,61,29.93,29.67,35,8,39,0.00
2014-1-21,19.6,9.6,3.0,19.1,2.9,-3.6,98,74,60,30.33,29.92,32,13,38,0.00
2014-1-22,25.2,15.2,0.1,16.4,8.0,-5.2,78,73,63,30.29,29.93,27,13,36,0.00
2014-1-23,10.6,1.7,-4.5,-1.8,-6.4,-10.6,78,68,53,30.68,30.21,17,11,25,0.00
2014-1-24,36.5,19.5,-0.2,18.7,5.2,-5.6,78,56,39,30.50,29.55,32,18,40,0.19
2014-1-25,38.8,28.3,16.9,35.7,12.4,-6.3,91,53,24,29.88,29.51,29,14,36,0.05
2014-1-26,50.7,36.1,10.9,34.7,22.3,-5.8,90,58,44,29.87,29.41,35,18,46,1.33
2014-1-27,10.2,4.4,-3.5,-2.2,-7.9,-10.7,74,56,44,30.48,29.85,26,13,32,0.00
2014-1-28,16.2,5.0,-7.2,-1.7,-5.3,-10.9,87,64,41,30.47,30.23,13,5,18,0.00
2014-1-29,34.3,20.5,4.1,11.1,5.1,-3.1,78,54,29,30.23,29.88,21,10,27,0.00
2014-1-30,36.0,31.4,28.4,32.3,17.5,10.9,97,59,39,29.88,29.64,26,17,32,0.00
2014-1-31,21.6,16.4,13.3,17.5,13.9,9.2,98,90,77,30.13,29.89,16,10,16,0.00
2014-2-1,24.1,21.9,18.0,23.6,20.9,17.7,99,96,90,30.12,29.77,18,9,18,0.00
2014-2-2,21.2,9.0,-4.5,19.2,3.0,-8.0,92,76,63,30.32,30.11,15,7,15,0.00
2014-2-3,23.7,4.8,-16.4,12.6,-1.1,-20.3,93,78,50,30.34,30.24,5,2,5,0.00
2014-2-4,19.2,14.1,4.5,18.5,12.8,3.1,98,94,84,30.29,29.98,23,12,25,0.00
2014-2-5,16.7,11.4,-4.0,16.1,7.7,-8.2,98,85,71,30.44,29.95,26,14,29,0.00
2014-2-6,10.4,-2.3,-14.6,-1.7,-8.5,-17.8,88,75,57,30.50,30.35,11,5,14,0.00
2014-2-7,16.5,3.4,-14.8,6.6,-3.6,-18.0,88,73,51,30.43,30.21,9,3,11,0.00
2014-2-8,23.5,18.0,11.5,19.6,14.5,6.3,93,86,76,30.22,30.01,9,4,11,0.00
2014-2-9,21.4,14.8,1.6,19.5,10.1,-4.2,98,82,63,30.32,30.03,13,8,17,0.00
2014-2-10,16.5,-0.5,-11.0,0.5,-7.1,-15.0,88,73,46,30.44,30.30,12,5,13,0.00
2014-2-11,14.9,0.1,-13.7,2.4,-6.9,-17.0,89,73,48,30.46,30.19,7,2,8,0.00
2014-2-12,38.1,13.3,-3.8,17.9,4.2,-8.3,87,69,36,30.20,29.84,9,3,12,0.00
2014-2-13,40.1,26.0,4.3,31.5,18.8,0.5,90,74,64,29.87,29.62,22,10,27,0.00
2014-2-14,25.0,16.1,1.9,19.7,12.1,-0.3,97,84,71,29.95,29.60,21,10,21,0.00
2014-2-15,24.1,10.2,-7.6,20.2,6.6,-10.2,93,85,69,30.07,29.84,11,4,11,0.00
2014-2-16,38.1,25.2,19.4,23.0,20.2,16.4,92,82,47,30.20,29.83,17,9,17,0.00
2014-2-17,40.5,31.2,20.7,36.4,28.0,18.2,99,88,74,30.03,29.53,22,9,22,0.24
2014-2-18,53.6,43.9,32.4,34.9,30.0,26.4,85,60,39,29.91,29.63,24,9,24,0.00
2014-2-19,50.4,39.4,30.2,37.5,33.8,28.7,97,81,55,29.94,29.56,21,7,21,0.35
2014-2-20,58.1,38.4,34.5,56.0,35.1,29.4,99,88,77,29.59,29.06,46,17,46,2.91
2014-2-21,49.3,36.3,27.0,32.3,25.9,19.8,89,67,47,29.80,29.42,28,16,36,0.00
2014-2-22,39.7,32.3,26.2,33.8,27.7,17.7,99,83,67,29.99,29.80,15,8,19,0.00
2014-2-23,30.2,24.7,21.2,18.4,16.2,13.4,80,70,57,30.23,29.98,19,11,24,0.00
2014-2-24,28.9,22.5,18.3,19.8,15.4,12.5,94,75,53,30.31,30.14,9,5,11,0.00
2014-2-25,21.0,15.9,10.8,20.3,10.0,1.4,98,78,58,30.26,30.12,19,11,22,0.00
2014-2-26,10.6,4.0,-0.9,3.4,-3.9,-9.1,73,69,59,30.25,30.11,18,12,22,0.00
2014-2-27,23.0,13.4,7.5,14.6,0.3,-5.8,75,56,40,30.10,29.70,23,12,23,0.00
2014-2-28,45.1,27.1,7.5,24.7,14.4,0.2,84,61,37,30.03,29.84,16,10,20,0.00
2014-3-1,38.8,22.4,9.9,25.9,17.4,8.1,94,81,52,30.28,29.89,20,15,24,0.00
2014-3-2,9.7,3.2,-2.6,7.7,-3.3,-10.7,95,74,59,30.45,30.25,20,16,25,0.00
2014-3-3,22.6,5.0,-9.9,6.9,-5.1,-16.0,83,63,35,30.50,30.22,14,5,17,0.00
2014-3-4,38.3,24.7,10.4,25.3,14.9,6.8,89,68,42,30.25,30.03,12,5,14,0.00
2014-3-5,34.9,27.7,23.0,25.4,23.1,20.8,93,83,63,30.31,30.05,21,14,23,0.00
2014-3-6,45.0,31.3,19.8,29.9,25.0,19.1,98,80,51,30.25,29.95,12,6,15,0.00
2014-3-7,58.1,41.9,28.9,41.2,32.6,25.7,96,72,48,29.95,29.82,20,8,24,0.00
2014-3-8,35.4,33.3,28.8,34.6,32.5,27.8,98,97,92,30.24,29.92,15,8,18,0.00
2014-3-9,52.9,38.7,23.2,38.2,31.3,22.5,99,77,55,30.22,29.82,19,10,25,0.00
2014-3-10,62.2,50.1,38.8,43.6,38.3,32.5,93,65,47,29.82,29.60,18,10,23,0.00
2014-3-11,69.6,46.9,34.7,52.6,41.2,32.9,98,82,53,29.62,29.49,33,11,40,0.07
2014-3-12,38.1,33.1,28.2,32.1,27.4,19.6,94,80,58,30.04,29.64,24,15,29,0.12
2014-3-13,60.6,40.8,23.2,40.7,31.4,21.7,98,72,39,30.07,29.80,14,7,19,0.00
2014-3-14,60.8,50.4,34.3,40.5,33.7,29.1,86,54,35,29.92,29.65,26,13,31,0.00
2014-3-15,59.0,42.9,28.0,43.1,34.2,27.1,97,74,44,30.04,29.88,25,10,27,0.00
2014-3-16,35.6,30.4,23.9,32.7,28.4,22.9,98,92,86,30.15,30.02,30,24,36,0.00